Time;durP1;ratioP1;P1;durP2;ratioP2;P2;SDS_P1;SDS_P2;PMS_P1;PMS_P2;Temp;Humidity;BMP_temperature;BMP_pressure;BME280_temperature;BME280_humidity;BME280_pressure;Samples;Min_cycle;Max_cycle;Signal;HPM_P1;HPM_P2
2023/03/05 00:01:23;;;;;;;4.90;2.72;;;22.80;66.20;;;;;;6206813;28;89266;-71
2023/03/05 00:04:26;;;;;;;4.72;2.80;;;22.80;66.20;;;;;;6206206;28;90322;-70
2023/03/05 00:07:28;;;;;;;4.97;2.72;;;22.80;66.20;;;;;;6204466;28;89513;-70
2023/03/05 00:10:30;;;;;;;4.32;2.63;;;22.80;66.20;;;;;;6204595;28;89175;-70
2023/03/05 00:13:33;;;;;;;4.43;3.00;;;22.80;66.30;;;;;;6205610;28;89267;-69
2023/03/05 00:16:35;;;;;;;8.18;2.67;;;22.80;66.20;;;;;;6203923;28;88284;-70
2023/03/05 00:19:38;;;;;;;4.32;3.00;;;22.80;66.30;;;;;;6204679;28;89023;-71
2023/03/05 00:22:40;;;;;;;4.43;2.60;;;22.70;66.20;;;;;;6205899;28;89427;-70
2023/03/05 00:25:44;;;;;;;3.80;2.63;;;22.70;66.20;;;;;;6200465;28;88334;-71
2023/03/05 00:28:48;;;;;;;4.28;2.60;;;22.70;66.20;;;;;;6201106;28;89167;-70
2023/03/05 00:31:50;;;;;;;4.20;2.50;;;22.80;66.20;;;;;;6203620;28;88651;-71
2023/03/05 00:34:54;;;;;;;3.65;2.70;;;22.70;66.20;;;;;;6205691;28;90312;-70
2023/03/05 00:37:57;;;;;;;4.05;2.92;;;22.70;66.20;;;;;;6202941;28;89118;-70
2023/03/05 00:40:59;;;;;;;8.43;3.60;;;22.70;66.20;;;;;;6202308;28;89533;-70
2023/03/05 00:44:01;;;;;;;7.07;4.47;;;22.70;66.20;;;;;;6193649;28;88159;-72
2023/03/05 00:47:04;;;;;;;8.60;4.13;;;22.70;66.20;;;;;;6199323;28;89136;-71
2023/03/05 00:50:09;;;;;;;7.90;4.82;;;22.70;66.20;;;;;;6200449;28;87845;-70
2023/03/05 00:53:11;;;;;;;9.25;5.10;;;22.70;66.40;;;;;;6204744;28;89141;-69
2023/03/05 00:56:13;;;;;;;7.95;5.03;;;22.70;66.40;;;;;;6203476;28;89595;-69
2023/03/05 00:59:15;;;;;;;41.88;29.05;;;22.80;67.00;;;;;;6203548;28;89814;-73
2023/03/05 01:02:17;;;;;;;270.08;143.23;;;22.80;67.50;;;;;;6204423;28;89562;-71
2023/03/05 01:05:21;;;;;;;268.17;125.47;;;22.90;68.80;;;;;;6202855;28;90044;-71
2023/03/05 01:08:24;;;;;;;217.38;108.28;;;23.00;67.40;;;;;;6205807;28;89919;-72
2023/03/05 01:11:26;;;;;;;178.45;99.82;;;23.00;67.10;;;;;;6206419;28;89002;-71
2023/03/05 01:14:28;;;;;;;239.98;138.85;;;23.00;67.00;;;;;;6207482;28;89343;-70
2023/03/05 01:17:30;;;;;;;218.73;127.35;;;23.00;67.60;;;;;;6206190;28;89228;-70
2023/03/05 01:20:34;;;;;;;207.50;123.95;;;23.00;69.00;;;;;;6206946;28;89003;-71
2023/03/05 01:23:36;;;;;;;199.55;122.00;;;23.00;67.90;;;;;;6202299;28;89075;-69
2023/03/05 01:26:38;;;;;;;190.60;117.53;;;23.00;67.70;;;;;;6208283;28;88211;-70
2023/03/05 01:29:40;;;;;;;178.38;109.57;;;23.00;67.70;;;;;;6207509;28;89213;-69
2023/03/05 01:32:43;;;;;;;169.73;106.13;;;23.00;67.60;;;;;;6207226;28;88096;-70
2023/03/05 01:35:48;;;;;;;161.60;101.45;;;23.00;67.40;;;;;;6206623;28;90434;-71
2023/03/05 01:38:50;;;;;;;154.15;97.13;;;23.00;67.20;;;;;;6202629;28;89421;-70
2023/03/05 01:41:53;;;;;;;154.80;94.78;;;23.00;67.10;;;;;;6206332;28;89141;-70
2023/03/05 01:45:04;;;;;;;140.40;87.90;;;23.00;66.90;;;;;;6198599;28;89175;-70
2023/03/05 01:48:06;;;;;;;118.50;70.13;;;23.00;66.70;;;;;;6193693;28;89075;-70
2023/03/05 01:51:10;;;;;;;106.75;65.90;;;23.00;65.50;;;;;;6199716;28;88986;-70
2023/03/05 01:54:17;;;;;;;106.85;66.15;;;23.00;64.80;;;;;;6207325;28;88117;-70
2023/03/05 01:57:23;;;;;;;106.70;63.20;;;23.00;65.10;;;;;;6208590;28;88501;-70
2023/03/05 02:00:28;;;;;;;99.65;61.65;;;23.00;65.30;;;;;;6205513;28;89084;-70
2023/03/05 02:03:31;;;;;;;97.68;60.22;;;23.00;65.40;;;;;;6203875;28;89325;-70
2023/03/05 02:06:35;;;;;;;94.22;57.40;;;23.00;65.40;;;;;;6207117;28;89951;-70
2023/03/05 02:09:39;;;;;;;89.55;56.08;;;23.00;65.40;;;;;;6206619;28;89279;-70
2023/03/05 02:12:41;;;;;;;84.18;53.17;;;23.00;65.40;;;;;;6208255;28;89066;-70
2023/03/05 02:15:43;;;;;;;84.38;52.42;;;23.00;65.40;;;;;;6207776;28;89083;-70
2023/03/05 02:18:45;;;;;;;77.70;49.72;;;23.00;65.40;;;;;;6202914;28;89153;-69
2023/03/05 02:21:49;;;;;;;75.80;48.45;;;22.90;65.40;;;;;;6202518;28;89087;-70
2023/03/05 02:24:52;;;;;;;75.10;47.42;;;22.90;65.40;;;;;;6195543;28;89101;-70
2023/03/05 02:27:58;;;;;;;70.05;46.38;;;22.90;65.50;;;;;;6203575;28;88287;-70
2023/03/05 02:31:01;;;;;;;66.20;44.10;;;22.90;65.50;;;;;;6207313;28;89172;-70
2023/03/05 02:34:03;;;;;;;65.45;42.67;;;22.80;65.50;;;;;;6195923;28;89173;-71
2023/03/05 02:37:08;;;;;;;66.18;41.92;;;22.80;65.50;;;;;;6205215;28;90108;-70
2023/03/05 02:40:11;;;;;;;63.35;40.05;;;22.80;65.50;;;;;;6205626;28;89388;-70
2023/03/05 02:43:13;;;;;;;59.55;38.80;;;22.80;65.60;;;;;;6206793;28;89112;-70
2023/03/05 02:46:15;;;;;;;53.67;36.35;;;22.80;65.50;;;;;;6199251;28;89124;-70
2023/03/05 02:49:17;;;;;;;55.42;35.80;;;22.80;65.50;;;;;;6200982;28;89058;-70
2023/03/05 02:52:22;;;;;;;54.15;35.15;;;22.80;65.50;;;;;;6204957;28;89423;-71
2023/03/05 02:55:24;;;;;;;52.72;33.03;;;22.80;65.50;;;;;;6202028;28;89033;-69
2023/03/05 02:58:26;;;;;;;48.28;31.85;;;22.80;65.50;;;;;;6208583;28;88622;-71
2023/03/05 03:01:28;;;;;;;49.22;31.70;;;22.80;65.70;;;;;;6209361;28;89038;-70
2023/03/05 03:04:30;;;;;;;46.08;30.27;;;22.80;65.80;;;;;;6207355;28;89103;-69
2023/03/05 03:07:35;;;;;;;43.17;28.02;;;22.80;66.60;;;;;;6202727;28;89832;-70
2023/03/05 03:10:37;;;;;;;42.10;27.63;;;22.80;66.40;;;;;;6206211;28;89222;-74
2023/03/05 03:13:39;;;;;;;42.55;27.80;;;22.80;66.60;;;;;;6198971;28;89122;-71
2023/03/05 03:16:41;;;;;;;39.45;26.02;;;22.80;66.90;;;;;;6203628;28;89098;-72
2023/03/05 03:19:45;;;;;;;36.30;24.75;;;22.80;67.20;;;;;;6205581;28;89037;-72
2023/03/05 03:22:48;;;;;;;37.80;24.75;;;22.70;67.10;;;;;;6205900;28;89057;-72
2023/03/05 03:25:50;;;;;;;35.15;22.95;;;22.80;67.30;;;;;;6203661;28;89181;-69
2023/03/05 03:28:52;;;;;;;32.40;22.50;;;22.70;67.00;;;;;;6199753;28;89425;-70
2023/03/05 03:31:54;;;;;;;35.97;22.10;;;22.80;66.90;;;;;;6204724;28;89046;-72
2023/03/05 03:34:57;;;;;;;36.78;21.90;;;22.70;66.90;;;;;;6205828;28;89056;-74
2023/03/05 03:38:00;;;;;;;31.98;21.52;;;22.70;67.00;;;;;;6200178;28;90286;-72
2023/03/05 03:41:05;;;;;;;28.08;19.15;;;22.70;67.10;;;;;;6206430;28;89093;-73
2023/03/05 03:44:09;;;;;;;27.73;19.27;;;22.70;67.10;;;;;;6193930;28;89043;-70
2023/03/05 03:47:11;;;;;;;27.77;18.17;;;22.60;67.00;;;;;;6204246;28;89154;-72
2023/03/05 03:50:13;;;;;;;25.30;17.23;;;22.70;67.40;;;;;;6203582;28;89096;-69
2023/03/05 05:36:53;;;;;;;6.68;5.38;;;22.70;65.30;;;;;;6010549;29;87914;-69
2023/03/05 05:39:55;;;;;;;6.78;5.03;;;22.70;65.30;;;;;;6017477;28;89038;-68
2023/03/05 05:42:57;;;;;;;5.72;5.07;;;22.70;65.20;;;;;;6004978;29;88024;-68
2023/03/05 05:46:00;;;;;;;6.22;5.13;;;22.70;65.20;;;;;;5998177;29;90851;-68
2023/03/05 05:49:02;;;;;;;5.93;4.85;;;22.70;66.10;;;;;;6010608;29;89275;-69
2023/03/05 05:52:06;;;;;;;7.43;5.30;;;22.70;65.20;;;;;;6006490;29;89151;-68
2023/03/05 05:55:10;;;;;;;6.18;4.97;;;22.70;65.00;;;;;;6005921;29;89018;-69
2023/03/05 05:58:12;;;;;;;6.40;5.00;;;22.70;65.00;;;;;;6004023;29;89172;-69
2023/03/05 06:01:16;;;;;;;5.60;4.70;;;22.70;64.90;;;;;;6000326;29;89094;-68
2023/03/05 06:04:18;;;;;;;6.90;5.20;;;22.70;64.70;;;;;;6011136;29;89481;-69
2023/03/05 06:07:22;;;;;;;6.60;4.70;;;22.80;64.60;;;;;;6018419;29;88538;-69
2023/03/05 06:10:24;;;;;;;5.25;4.60;;;22.70;64.50;;;;;;5999264;29;90539;-69
2023/03/05 06:13:26;;;;;;;5.65;3.97;;;22.70;64.50;;;;;;6011968;29;88942;-69
2023/03/05 06:16:28;;;;;;;4.93;4.10;;;22.70;64.50;;;;;;6016291;29;90300;-68
2023/03/05 06:19:30;;;;;;;5.15;4.18;;;22.70;64.50;;;;;;6010703;29;89039;-70
2023/03/05 06:22:36;;;;;;;5.82;4.38;;;22.70;64.50;;;;;;6016400;29;89170;-69
2023/03/05 06:25:38;;;;;;;4.88;4.35;;;22.70;64.40;;;;;;6004477;29;88337;-70
2023/03/05 06:28:40;;;;;;;5.13;4.32;;;22.70;64.30;;;;;;6003462;29;89358;-70
2023/03/05 06:31:42;;;;;;;5.95;4.18;;;22.70;64.20;;;;;;6016125;29;88674;-70
2023/03/05 06:34:44;;;;;;;4.18;3.53;;;22.70;64.20;;;;;;6016159;29;89196;-70
2023/03/05 06:37:48;;;;;;;5.00;4.13;;;22.70;64.00;;;;;;6003937;29;88679;-70
2023/03/05 06:40:50;;;;;;;5.97;4.45;;;22.70;63.90;;;;;;6011132;29;89046;-70
2023/03/05 06:43:53;;;;;;;4.70;4.10;;;22.70;64.00;;;;;;6014353;29;90145;-70
2023/03/05 06:46:55;;;;;;;6.95;4.60;;;22.80;64.00;;;;;;6001548;29;90027;-69
2023/03/05 06:49:57;;;;;;;5.15;4.18;;;22.70;64.00;;;;;;6005590;29;89123;-72
2023/03/05 06:53:01;;;;;;;4.25;3.80;;;22.80;64.10;;;;;;6010261;29;89124;-71
2023/03/05 06:56:03;;;;;;;4.72;3.53;;;22.70;64.10;;;;;;6000889;29;89846;-71
2023/03/05 06:59:06;;;;;;;5.82;4.15;;;22.80;64.20;;;;;;6014750;29;87880;-73
2023/03/05 07:02:10;;;;;;;4.53;4.03;;;22.70;64.20;;;;;;6004787;29;89038;-72
2023/03/05 07:05:12;;;;;;;4.93;3.63;;;22.70;64.20;;;;;;6004016;29;87963;-72
2023/03/05 07:08:16;;;;;;;4.72;3.83;;;22.70;64.20;;;;;;6005131;29;88372;-72
2023/03/05 07:11:20;;;;;;;4.13;3.72;;;22.70;64.20;;;;;;6011952;29;89110;-72
2023/03/05 07:14:22;;;;;;;4.10;3.50;;;22.80;64.10;;;;;;6008945;29;89186;-70
2023/03/05 07:17:24;;;;;;;4.30;3.80;;;22.70;64.00;;;;;;5993291;29;90007;-70
2023/03/05 07:20:27;;;;;;;5.65;3.78;;;22.80;64.10;;;;;;6005360;29;89017;-71
2023/03/05 07:23:30;;;;;;;5.68;4.25;;;22.80;64.20;;;;;;5992683;29;89023;-70
2023/03/05 07:26:33;;;;;;;5.45;4.18;;;22.70;64.10;;;;;;5992854;29;89216;-71
2023/03/05 07:29:36;;;;;;;4.15;3.22;;;22.80;64.20;;;;;;6005268;29;88999;-69
2023/03/05 07:32:38;;;;;;;3.50;3.20;;;22.80;64.30;;;;;;6003535;29;89832;-69
2023/03/05 07:35:41;;;;;;;5.03;3.40;;;22.80;64.30;;;;;;6003519;29;89206;-70
2023/03/05 07:38:44;;;;;;;4.05;3.65;;;22.70;64.20;;;;;;6004277;29;88361;-70
2023/03/05 07:41:49;;;;;;;4.68;3.63;;;22.70;64.20;;;;;;6007546;29;89077;-71
2023/03/05 07:44:51;;;;;;;4.30;3.30;;;22.80;64.20;;;;;;6004860;29;89146;-70
2023/03/05 07:47:54;;;;;;;4.60;3.42;;;22.80;64.20;;;;;;6013123;29;90057;-71
2023/03/05 07:51:03;;;;;;;4.05;3.60;;;22.80;64.20;;;;;;6003608;29;90460;-71
2023/03/05 07:54:06;;;;;;;4.15;3.47;;;22.80;64.30;;;;;;6011976;29;89145;-71
2023/03/05 07:57:11;;;;;;;5.05;3.70;;;22.80;64.40;;;;;;5992694;29;89148;-71
2023/03/05 08:00:14;;;;;;;4.03;3.30;;;22.80;64.40;;;;;;6002133;29;89020;-70
2023/03/05 08:03:16;;;;;;;4.03;3.40;;;22.80;64.50;;;;;;6001736;29;87991;-72
2023/03/05 08:06:18;;;;;;;3.55;3.25;;;22.80;64.40;;;;;;6013845;29;89123;-71
2023/03/05 08:09:22;;;;;;;4.95;3.42;;;22.80;64.40;;;;;;6013937;29;87046;-71
2023/03/05 08:12:24;;;;;;;3.65;3.10;;;22.80;64.50;;;;;;6010669;29;89186;-71
2023/03/05 08:15:26;;;;;;;3.90;3.50;;;22.80;64.50;;;;;;6004019;29;89188;-71
2023/03/05 08:18:28;;;;;;;4.00;3.40;;;22.80;65.50;;;;;;5991890;29;88906;-70
2023/03/05 08:21:33;;;;;;;5.20;3.30;;;22.80;64.60;;;;;;6004323;29;89134;-71
2023/03/05 08:24:36;;;;;;;4.07;3.47;;;22.80;64.50;;;;;;6004407;29;89091;-69
2023/03/05 08:27:40;;;;;;;4.50;3.15;;;22.80;64.50;;;;;;5992400;29;89102;-70
2023/03/05 08:30:42;;;;;;;4.97;3.20;;;22.80;64.60;;;;;;6013033;29;89413;-70
2023/03/05 08:33:44;;;;;;;4.47;3.30;;;22.80;64.60;;;;;;5991770;29;89185;-70
2023/03/05 08:36:46;;;;;;;3.47;3.17;;;22.80;64.70;;;;;;6002498;29;89298;-70
2023/03/05 08:39:49;;;;;;;3.67;3.22;;;22.80;64.70;;;;;;5996554;29;88531;-70
2023/03/05 08:42:51;;;;;;;6.07;3.38;;;22.80;64.70;;;;;;6003407;29;89137;-71
2023/03/05 08:45:54;;;;;;;3.75;3.38;;;22.80;64.70;;;;;;6013872;29;88001;-71
2023/03/05 08:48:56;;;;;;;3.90;3.00;;;22.80;64.70;;;;;;6001613;29;90043;-72
2023/03/05 08:51:58;;;;;;;5.70;3.75;;;22.80;64.80;;;;;;6011509;29;89098;-71
2023/03/05 08:55:01;;;;;;;4.15;3.55;;;22.80;64.70;;;;;;6009020;29;89059;-72
2023/03/05 08:58:04;;;;;;;6.70;3.58;;;22.90;64.80;;;;;;6003833;29;89060;-71
2023/03/05 09:01:06;;;;;;;3.38;3.05;;;22.90;64.80;;;;;;6011121;29;89089;-72
2023/03/05 09:04:10;;;;;;;4.15;3.15;;;22.80;64.60;;;;;;6001376;29;90826;-72
2023/03/05 09:07:12;;;;;;;4.55;3.20;;;22.90;64.60;;;;;;6010438;29;88990;-71
2023/03/05 09:10:17;;;;;;;4.15;3.17;;;22.80;64.50;;;;;;6006842;29;88637;-70
2023/03/05 09:13:19;;;;;;;4.32;3.15;;;22.80;64.40;;;;;;6009880;29;89158;-74
2023/03/05 09:16:21;;;;;;;4.97;3.35;;;22.80;64.50;;;;;;6000935;29;89071;-72
2023/03/05 09:19:23;;;;;;;4.07;3.22;;;22.90;64.50;;;;;;6008035;29;90127;-73
2023/03/05 09:22:26;;;;;;;5.70;3.47;;;22.80;64.50;;;;;;6007355;29;89076;-73
2023/03/05 09:25:29;;;;;;;5.97;3.17;;;22.80;64.40;;;;;;6007889;29;88006;-73
2023/03/05 09:28:31;;;;;;;3.70;2.97;;;22.80;64.50;;;;;;6012454;29;89213;-72
2023/03/05 09:31:33;;;;;;;4.40;3.25;;;22.90;64.40;;;;;;6005268;29;89104;-72
2023/03/05 09:34:35;;;;;;;3.67;3.25;;;22.80;64.40;;;;;;6008913;29;89178;-72
2023/03/05 09:37:38;;;;;;;4.32;3.13;;;22.90;64.40;;;;;;6016755;29;89168;-70
2023/03/05 09:40:51;;;;;;;4.25;3.10;;;22.90;64.50;;;;;;6003811;29;88243;-69
2023/03/05 09:44:01;;;;;;;4.30;3.33;;;22.80;65.90;;;;;;6008916;29;88000;-71
2023/03/05 09:47:17;;;;;;;4.35;3.33;;;22.90;65.10;;;;;;6012528;29;89121;-71
2023/03/05 09:50:37;;;;;;;4.30;3.17;;;22.90;65.10;;;;;;6010649;29;90061;-70
2023/03/05 09:53:47;;;;;;;3.83;3.00;;;23.00;65.20;;;;;;6013320;29;88498;-71
2023/03/05 09:56:55;;;;;;;5.95;3.53;;;22.90;65.20;;;;;;6010237;29;87836;-71
2023/03/05 10:00:01;;;;;;;3.80;2.83;;;22.90;65.30;;;;;;6013094;29;88157;-72
2023/03/05 10:03:06;;;;;;;4.97;3.03;;;23.00;65.50;;;;;;6011455;29;89257;-70
2023/03/05 10:06:16;;;;;;;5.20;2.95;;;22.90;65.40;;;;;;6005713;29;89102;-71
2023/03/05 10:09:30;;;;;;;4.15;2.88;;;23.00;65.70;;;;;;6012388;29;89121;-71
2023/03/05 10:12:42;;;;;;;3.90;3.13;;;22.90;65.70;;;;;;5999116;29;88491;-75
2023/03/05 10:15:51;;;;;;;3.67;2.78;;;23.00;65.70;;;;;;6005265;29;89989;-70
2023/03/05 10:19:02;;;;;;;5.78;3.08;;;23.00;65.90;;;;;;6016150;29;89393;-69
2023/03/05 10:22:14;;;;;;;9.02;5.63;;;22.90;66.00;;;;;;6015144;29;89296;-72
2023/03/05 10:25:20;;;;;;;70.50;33.92;;;22.90;68.60;;;;;;6011830;29;87988;-72
2023/03/05 10:28:33;;;;;;;32.90;18.33;;;23.00;70.00;;;;;;6004353;29;89062;-73
2023/03/05 10:31:54;;;;;;;24.25;12.77;;;23.00;70.30;;;;;;5999083;29;89159;-74
2023/03/05 10:35:07;;;;;;;22.25;11.73;;;23.10;68.30;;;;;;6009126;29;89123;-71
2023/03/05 10:38:25;;;;;;;18.27;10.27;;;23.20;67.60;;;;;;6010884;29;89620;-68
2023/03/05 10:41:33;;;;;;;19.95;10.30;;;23.30;67.70;;;;;;6008427;29;89171;-69
2023/03/05 10:44:41;;;;;;;19.77;9.25;;;23.30;68.90;;;;;;5998155;29;88287;-69
2023/03/05 10:47:49;;;;;;;15.32;8.60;;;23.30;68.10;;;;;;6004188;29;89489;-69
2023/03/05 10:50:58;;;;;;;20.63;8.25;;;23.20;67.60;;;;;;5998416;29;89237;-69
2023/03/05 10:54:09;;;;;;;16.88;7.90;;;23.20;67.50;;;;;;6006155;29;90223;-69
2023/03/05 10:57:18;;;;;;;20.42;8.68;;;23.20;67.50;;;;;;6009461;29;89166;-69
2023/03/05 11:00:24;;;;;;;16.35;7.32;;;23.20;67.60;;;;;;6014639;29;88148;-71
2023/03/05 11:03:27;;;;;;;15.70;7.55;;;23.10;67.40;;;;;;6006084;29;89060;-71
2023/03/05 11:06:37;;;;;;;13.73;6.60;;;23.10;67.20;;;;;;6004004;29;87977;-71
2023/03/05 11:09:40;;;;;;;14.35;6.68;;;23.10;67.40;;;;;;6008549;29;88194;-72
2023/03/05 11:12:43;;;;;;;16.52;7.05;;;23.20;67.40;;;;;;6010145;29;88860;-71
2023/03/05 11:15:59;;;;;;;11.63;7.07;;;23.10;65.00;;;;;;6007212;29;88295;-71
2023/03/05 11:19:21;;;;;;;11.55;6.75;;;23.10;60.30;;;;;;6002275;29;89122;-72
2023/03/05 11:22:25;;;;;;;9.60;6.50;;;23.10;58.10;;;;;;6009452;29;87313;-71
2023/03/05 11:25:27;;;;;;;9.75;6.40;;;23.00;57.50;;;;;;6008817;29;89018;-71
2023/03/05 11:28:33;;;;;;;9.27;6.38;;;23.00;56.40;;;;;;6005202;29;89033;-70
2023/03/05 11:31:37;;;;;;;7.70;6.35;;;23.00;55.60;;;;;;6009891;29;88035;-70
2023/03/05 11:34:40;;;;;;;8.45;6.38;;;22.90;54.50;;;;;;6010244;29;88164;-70
2023/03/05 11:37:42;;;;;;;7.05;6.35;;;22.80;53.80;;;;;;6011427;29;89171;-70
2023/03/05 11:40:44;;;;;;;8.25;6.72;;;22.80;53.20;;;;;;6007150;29;87887;-70
2023/03/05 11:43:46;;;;;;;6.78;5.95;;;22.70;53.00;;;;;;6001511;29;89348;-70
2023/03/05 11:46:55;;;;;;;6.90;6.20;;;22.70;52.60;;;;;;6012224;29;88553;-70
2023/03/05 11:50:05;;;;;;;7.60;5.70;;;22.70;52.90;;;;;;5998663;29;89078;-73
2023/03/05 11:53:13;;;;;;;5.82;4.50;;;22.70;53.00;;;;;;5998468;29;89136;-71
2023/03/05 11:56:21;;;;;;;4.90;4.40;;;22.60;54.10;;;;;;6000183;29;90098;-72
2023/03/05 11:59:28;;;;;;;5.45;3.70;;;22.70;55.00;;;;;;6014386;29;88092;-72
2023/03/05 12:02:32;;;;;;;5.05;4.05;;;22.60;55.50;;;;;;6007129;29;88393;-71
2023/03/05 12:05:37;;;;;;;6.68;3.80;;;22.70;56.20;;;;;;5994854;29;88063;-68
2023/03/05 12:08:44;;;;;;;4.78;3.78;;;22.70;56.50;;;;;;5995630;29;88015;-71
2023/03/05 12:11:50;;;;;;;9.25;4.38;;;22.70;56.90;;;;;;5993555;29;89844;-72
2023/03/05 12:14:58;;;;;;;8.43;4.22;;;22.70;57.40;;;;;;6005511;29;89405;-72
2023/03/05 12:18:12;;;;;;;5.68;3.67;;;22.70;57.60;;;;;;6014691;29;88690;-71
2023/03/05 12:21:25;;;;;;;6.65;3.70;;;22.80;57.90;;;;;;6003661;29;89090;-72
2023/03/05 12:24:39;;;;;;;4.75;3.35;;;22.80;58.10;;;;;;5994360;29;88703;-72
2023/03/05 12:27:41;;;;;;;5.68;3.72;;;22.80;58.30;;;;;;6006123;29;88967;-72
2023/03/05 12:31:01;;;;;;;5.78;3.30;;;22.80;58.40;;;;;;6015286;29;89047;-71
2023/03/05 12:34:40;;;;;;;5.13;3.30;;;22.80;58.60;;;;;;6002628;29;87798;-72
2023/03/05 12:38:02;;;;;;;6.25;3.45;;;22.80;58.80;;;;;;6001476;29;89067;-71
2023/03/05 12:41:34;;;;;;;6.20;3.15;;;22.80;59.60;;;;;;6011645;29;89833;-72
2023/03/05 12:44:38;;;;;;;3.47;3.00;;;22.80;59.10;;;;;;6010889;29;89486;-73
2023/03/05 12:47:41;;;;;;;4.38;2.97;;;22.80;59.30;;;;;;6008912;29;87810;-73
2023/03/05 12:50:59;;;;;;;4.25;3.10;;;22.80;59.80;;;;;;6007929;29;88468;-70
2023/03/05 12:54:31;;;;;;;5.50;3.40;;;22.80;60.20;;;;;;6006358;29;87017;-74
2023/03/05 12:57:35;;;;;;;5.40;2.88;;;22.80;60.40;;;;;;6003483;29;89600;-71
2023/03/05 13:00:43;;;;;;;5.57;3.03;;;22.80;60.50;;;;;;6014454;29;88904;-71
2023/03/05 13:03:49;;;;;;;6.70;3.38;;;22.80;60.60;;;;;;6004034;29;88082;-70
2023/03/05 13:07:01;;;;;;;4.32;3.05;;;22.80;61.50;;;;;;6012664;29;88651;-70
2023/03/05 13:10:06;;;;;;;5.63;3.30;;;22.80;61.10;;;;;;6009573;29;89085;-68
2023/03/05 13:13:18;;;;;;;4.90;3.28;;;22.80;61.10;;;;;;6011857;29;89434;-69
2023/03/05 13:16:25;;;;;;;4.63;2.78;;;22.80;61.10;;;;;;6007875;29;88009;-69
2023/03/05 13:19:30;;;;;;;5.43;3.20;;;22.80;61.20;;;;;;6002131;29;87249;-70
2023/03/05 13:22:33;;;;;;;6.32;3.03;;;22.90;61.30;;;;;;6008245;29;86480;-68
2023/03/05 13:25:37;;;;;;;3.42;2.60;;;22.90;61.40;;;;;;6012268;29;88319;-68
2023/03/05 13:28:41;;;;;;;4.15;3.00;;;22.80;61.40;;;;;;6009039;29;89230;-69
2023/03/05 13:31:45;;;;;;;3.50;2.70;;;22.80;61.50;;;;;;6010125;29;89889;-69
2023/03/05 13:34:49;;;;;;;6.63;3.15;;;22.80;61.60;;;;;;6001813;29;87887;-69
2023/03/05 13:37:53;;;;;;;5.38;2.97;;;22.90;61.70;;;;;;6002790;29;89446;-68
2023/03/05 13:41:18;;;;;;;6.70;3.55;;;22.80;61.80;;;;;;6003503;29;89287;-70
2023/03/05 13:44:22;;;;;;;6.72;3.17;;;22.80;61.80;;;;;;6008156;29;89395;-70
2023/03/05 13:47:28;;;;;;;4.03;3.00;;;22.80;61.90;;;;;;6006907;29;88592;-71
2023/03/05 13:50:32;;;;;;;4.88;3.13;;;22.90;62.10;;;;;;5993641;29;88047;-70
2023/03/05 13:53:36;;;;;;;5.72;3.22;;;22.90;62.10;;;;;;6007365;29;88234;-70
2023/03/05 13:56:53;;;;;;;3.40;2.45;;;22.80;62.10;;;;;;6004137;29;88058;-71
2023/03/05 13:59:56;;;;;;;4.78;2.80;;;22.80;62.20;;;;;;6005790;29;89031;-70
2023/03/05 14:03:02;;;;;;;6.13;2.95;;;22.80;62.40;;;;;;6012594;29;89273;-71
2023/03/05 14:06:09;;;;;;;3.55;2.83;;;22.80;62.40;;;;;;6005221;29;89098;-71
2023/03/05 14:09:20;;;;;;;3.83;2.78;;;22.90;62.50;;;;;;5996017;29;89283;-70
2023/03/05 14:12:29;;;;;;;3.90;2.65;;;22.80;62.50;;;;;;6009488;29;88233;-71
2023/03/05 14:15:33;;;;;;;4.47;2.65;;;22.80;62.50;;;;;;6006909;29;89037;-71
2023/03/05 14:18:36;;;;;;;3.95;2.78;;;22.80;62.50;;;;;;5998281;29;89034;-70
2023/03/05 14:21:47;;;;;;;4.25;2.65;;;22.90;63.50;;;;;;6002796;29;89230;-71
2023/03/05 14:24:53;;;;;;;3.13;2.40;;;22.80;62.70;;;;;;6000778;29;86569;-71
2023/03/05 14:27:59;;;;;;;3.08;2.78;;;22.80;62.70;;;;;;6006286;29;87905;-70
2023/03/05 14:31:02;;;;;;;4.25;2.80;;;22.80;62.70;;;;;;6006395;29;88187;-70
2023/03/05 14:34:07;;;;;;;5.47;3.20;;;22.80;62.80;;;;;;6004189;29;88626;-71
2023/03/05 14:37:22;;;;;;;4.95;3.00;;;22.80;63.80;;;;;;6008167;29;89087;-69
2023/03/05 14:40:29;;;;;;;4.10;2.60;;;22.80;62.80;;;;;;6000522;29;87970;-70
2023/03/05 14:43:33;;;;;;;5.05;2.83;;;22.80;63.00;;;;;;6013884;29;89510;-70
2023/03/05 14:46:36;;;;;;;4.15;2.45;;;22.90;63.00;;;;;;6014490;29;88011;-70
2023/03/05 14:49:39;;;;;;;3.03;2.72;;;22.80;63.00;;;;;;6010929;29;88011;-71
2023/03/05 14:52:45;;;;;;;4.57;2.92;;;22.90;63.10;;;;;;6003117;29;88045;-71
2023/03/05 14:55:52;;;;;;;3.78;3.10;;;22.90;63.10;;;;;;6007305;29;87063;-71
2023/03/05 14:58:57;;;;;;;3.53;2.58;;;22.90;63.10;;;;;;6013296;29;90235;-70
2023/03/05 15:02:00;;;;;;;5.18;3.30;;;22.80;63.10;;;;;;5998321;29;88155;-70
2023/03/05 15:05:03;;;;;;;3.53;2.90;;;22.90;63.20;;;;;;6002601;29;90361;-71
2023/03/05 15:08:08;;;;;;;3.35;2.70;;;22.90;63.20;;;;;;5990625;29;87236;-73
2023/03/05 15:11:11;;;;;;;3.00;2.70;;;22.90;63.20;;;;;;6002752;29;89298;-71
2023/03/05 15:14:15;;;;;;;3.10;2.70;;;22.90;63.30;;;;;;6003554;29;88660;-70
2023/03/05 15:17:22;;;;;;;3.15;2.72;;;22.90;63.30;;;;;;6002692;29;88325;-71
2023/03/05 15:20:26;;;;;;;4.60;2.60;;;22.90;63.30;;;;;;6008296;29;88106;-72
2023/03/05 15:23:34;;;;;;;3.03;2.70;;;22.90;63.30;;;;;;6012060;29;88108;-72
2023/03/05 15:26:37;;;;;;;2.95;2.65;;;22.90;63.30;;;;;;5998812;29;87383;-72
2023/03/05 15:29:42;;;;;;;3.10;2.78;;;22.90;63.30;;;;;;6012764;29;88103;-71
2023/03/05 15:32:45;;;;;;;4.78;2.88;;;22.90;63.30;;;;;;6011072;29;87999;-72
2023/03/05 15:35:49;;;;;;;3.28;2.58;;;22.90;63.40;;;;;;6011765;29;89175;-70
2023/03/05 15:38:52;;;;;;;3.40;2.78;;;22.90;63.50;;;;;;6013081;29;87946;-72
2023/03/05 15:41:56;;;;;;;4.03;2.85;;;22.90;63.40;;;;;;6000074;29;88288;-69
2023/03/05 15:45:00;;;;;;;2.92;2.45;;;22.80;63.40;;;;;;6010074;29;88189;-68
2023/03/05 15:48:03;;;;;;;5.05;2.40;;;22.90;63.60;;;;;;5997620;29;88075;-71
2023/03/05 15:51:07;;;;;;;5.75;2.78;;;22.90;63.70;;;;;;6009133;29;88006;-71
2023/03/05 15:54:14;;;;;;;3.55;2.38;;;22.90;63.80;;;;;;6008633;29;89042;-72
2023/03/05 15:57:20;;;;;;;4.10;2.70;;;22.90;63.80;;;;;;5997903;29;88257;-71
2023/03/05 16:00:28;;;;;;;5.47;2.95;;;22.90;63.70;;;;;;6013062;29;89548;-71
2023/03/05 16:03:31;;;;;;;4.90;2.88;;;22.90;63.70;;;;;;6011335;29;87877;-71
2023/03/05 16:06:34;;;;;;;3.33;2.58;;;22.90;63.70;;;;;;5989260;29;89033;-71
2023/03/05 16:09:42;;;;;;;4.53;2.70;;;22.90;63.70;;;;;;5999244;29;92666;-68
2023/03/05 16:12:51;;;;;;;5.00;2.33;;;22.90;63.70;;;;;;6002705;29;89756;-72
2023/03/05 16:15:56;;;;;;;4.03;2.72;;;22.90;63.80;;;;;;6010036;29;88518;-71
2023/03/05 16:19:00;;;;;;;3.60;2.60;;;23.00;63.80;;;;;;6012158;29;88059;-71
2023/03/05 16:22:07;;;;;;;5.10;2.72;;;23.00;63.80;;;;;;6000097;29;89396;-71
2023/03/05 16:25:11;;;;;;;3.70;2.40;;;23.00;63.70;;;;;;6012165;29;88008;-70
2023/03/05 16:28:14;;;;;;;2.67;2.38;;;23.00;63.70;;;;;;5994773;29;87320;-69
2023/03/05 16:31:19;;;;;;;3.97;2.40;;;23.00;63.80;;;;;;6004594;29;88243;-72
2023/03/05 16:34:33;;;;;;;3.03;2.40;;;23.00;63.70;;;;;;6011632;29;88054;-71
2023/03/05 16:37:36;;;;;;;3.80;2.95;;;23.00;63.70;;;;;;6007427;29;88315;-68
2023/03/05 16:40:41;;;;;;;3.53;2.75;;;23.00;64.10;;;;;;6011563;29;88395;-68
2023/03/05 16:43:45;;;;;;;3.97;2.90;;;22.90;63.80;;;;;;6009553;29;87070;-67
2023/03/05 16:46:52;;;;;;;3.08;2.78;;;23.00;63.10;;;;;;5998390;29;87149;-68
2023/03/05 16:49:55;;;;;;;3.58;2.80;;;22.90;62.00;;;;;;6009242;29;89203;-68
2023/03/05 16:52:59;;;;;;;3.78;2.70;;;22.90;61.60;;;;;;6010607;29;88417;-68
2023/03/05 16:56:04;;;;;;;3.67;2.70;;;22.90;61.40;;;;;;6013125;29;89246;-70
2023/03/05 16:59:07;;;;;;;5.10;3.50;;;22.90;61.70;;;;;;6014372;29;88425;-70
2023/03/05 17:02:14;;;;;;;5.10;3.58;;;22.90;60.60;;;;;;6010956;29;87707;-70
2023/03/05 17:05:17;;;;;;;5.53;3.38;;;22.80;59.80;;;;;;6004361;29;87107;-70
2023/03/05 17:08:23;;;;;;;5.95;3.65;;;22.80;60.00;;;;;;6012462;29;88969;-71
2023/03/05 17:11:28;;;;;;;4.85;3.80;;;22.80;59.80;;;;;;6003351;29;88068;-70
2023/03/05 17:14:30;;;;;;;4.32;3.30;;;22.80;59.10;;;;;;6003388;29;88102;-70
2023/03/05 17:17:39;;;;;;;4.93;3.42;;;22.80;59.10;;;;;;6000584;29;89075;-70
2023/03/05 17:20:42;;;;;;;3.90;3.40;;;22.80;58.70;;;;;;6032943;28;88108;-71
2023/03/05 17:23:45;;;;;;;4.20;3.40;;;22.70;58.70;;;;;;6002066;29;88080;-70
2023/03/05 17:26:49;;;;;;;3.80;3.40;;;22.70;59.00;;;;;;6000769;29;88013;-71
2023/03/05 17:29:53;;;;;;;4.60;3.45;;;22.70;59.00;;;;;;6002202;29;87690;-70
2023/03/05 17:32:58;;;;;;;3.88;3.25;;;22.80;59.00;;;;;;5997811;29;88031;-71
2023/03/05 17:36:03;;;;;;;3.38;3.00;;;22.80;59.00;;;;;;6004910;29;88144;-71
2023/03/05 17:39:07;;;;;;;3.65;3.00;;;22.80;59.30;;;;;;6009506;29;89093;-69